Time;durP1;ratioP1;P1;durP2;ratioP2;P2;SDS_P1;SDS_P2;PMS_P1;PMS_P2;Temp;Humidity;BMP_temperature;BMP_pressure;BME280_temperature;BME280_humidity;BME280_pressure;Samples;Min_cycle;Max_cycle;Signal;HPM_P1;HPM_P2
2021/08/24 00:02:24;;;;;;;2.72;1.30;;;;;;;;;;4993237;28;20479;-72
2021/08/24 00:04:50;;;;;;;3.10;1.40;;;;;;;;;;4992696;28;20070;-72
2021/08/24 00:07:16;;;;;;;3.75;1.80;;;;;;;;;;5005127;28;20430;-72
2021/08/24 00:09:41;;;;;;;4.30;1.50;;;;;;;;;;5011812;28;20127;-72
2021/08/24 00:12:07;;;;;;;2.83;1.65;;;;;;;;;;5012332;28;20026;-72
2021/08/24 00:14:33;;;;;;;4.13;1.75;;;;;;;;;;5012568;28;20034;-72
2021/08/24 00:16:59;;;;;;;4.20;1.50;;;;;;;;;;5012742;28;20047;-72
2021/08/24 00:19:25;;;;;;;2.92;1.40;;;;;;;;;;5012438;28;20129;-72
2021/08/24 00:21:51;;;;;;;2.80;1.42;;;;;;;;;;5012810;28;20112;-71
2021/08/24 00:24:18;;;;;;;4.47;1.70;;;;;;;;;;5011857;28;20037;-72
2021/08/24 00:26:44;;;;;;;2.78;1.48;;;;;;;;;;5012539;28;20021;-71
2021/08/24 00:29:10;;;;;;;4.05;1.50;;;;;;;;;;5012323;28;20359;-72
2021/08/24 00:31:35;;;;;;;2.95;1.50;;;;;;;;;;5012717;28;20113;-72
2021/08/24 00:34:01;;;;;;;3.42;1.60;;;;;;;;;;5012821;28;20061;-72
2021/08/24 00:36:26;;;;;;;2.72;1.55;;;;;;;;;;5012379;28;20458;-72
2021/08/24 00:38:52;;;;;;;3.38;1.70;;;;;;;;;;5012319;28;20061;-71
2021/08/24 00:41:17;;;;;;;4.35;1.80;;;;;;;;;;5012039;28;20079;-72
2021/08/24 00:43:45;;;;;;;3.38;1.50;;;;;;;;;;5012411;28;20034;-72
2021/08/24 00:46:32;;;;;;;4.45;1.40;;;;;;;;;;5005903;28;20045;-71
2021/08/24 00:49:02;;;;;;;2.83;1.30;;;;;;;;;;5006652;28;20113;-72
2021/08/24 00:51:30;;;;;;;4.07;1.50;;;;;;;;;;5012388;28;20022;-71
2021/08/24 00:53:55;;;;;;;3.75;1.60;;;;;;;;;;5012650;28;20053;-72
2021/08/24 00:56:21;;;;;;;3.33;1.63;;;;;;;;;;5012030;28;20068;-72
2021/08/24 00:58:49;;;;;;;3.85;1.63;;;;;;;;;;5012112;28;20029;-72
2021/08/24 01:01:15;;;;;;;2.88;1.40;;;;;;;;;;4994318;28;20397;-72
2021/08/24 01:03:45;;;;;;;4.60;1.60;;;;;;;;;;5011430;28;20030;-72
2021/08/24 01:06:21;;;;;;;2.92;1.35;;;;;;;;;;5011594;28;20107;-73
2021/08/24 01:09:14;;;;;;;3.90;1.58;;;;;;;;;;4997123;28;20022;-72
2021/08/24 01:11:42;;;;;;;4.07;1.95;;;;;;;;;;4963110;28;20467;-72
2021/08/24 01:14:23;;;;;;;3.78;1.38;;;;;;;;;;5011186;28;20501;-72
2021/08/24 01:17:13;;;;;;;3.35;1.52;;;;;;;;;;5011929;28;20022;-72
2021/08/24 01:19:53;;;;;;;4.20;1.30;;;;;;;;;;5004501;28;20026;-72
2021/08/24 01:22:33;;;;;;;2.80;1.13;;;;;;;;;;5011621;28;20037;-71
2021/08/24 01:25:04;;;;;;;2.15;1.20;;;;;;;;;;5011890;28;20423;-72
2021/08/24 01:27:54;;;;;;;7.35;1.60;;;;;;;;;;5010841;28;20366;-72
2021/08/24 01:30:40;;;;;;;2.53;1.20;;;;;;;;;;5011517;28;20054;-73
2021/08/24 01:33:31;;;;;;;3.10;1.40;;;;;;;;;;5005560;28;20379;-72
2021/08/24 01:36:06;;;;;;;2.67;1.33;;;;;;;;;;5011560;28;20041;-72
2021/08/24 01:38:36;;;;;;;4.85;1.67;;;;;;;;;;5011639;28;20088;-72
2021/08/24 01:41:20;;;;;;;4.22;1.80;;;;;;;;;;5011536;28;20025;-72
2021/08/24 01:44:07;;;;;;;3.00;1.40;;;;;;;;;;5004136;28;20029;-72
2021/08/24 01:46:42;;;;;;;3.55;1.70;;;;;;;;;;4993536;28;20034;-72
2021/08/24 01:49:07;;;;;;;4.22;1.42;;;;;;;;;;5011120;28;20040;-73
2021/08/24 01:51:37;;;;;;;3.45;1.48;;;;;;;;;;5011276;28;20038;-72
2021/08/24 01:54:38;;;;;;;3.22;1.50;;;;;;;;;;5011311;28;20363;-73
2021/08/24 01:57:07;;;;;;;4.20;1.70;;;;;;;;;;4969243;28;20469;-73
2021/08/24 01:59:49;;;;;;;4.35;1.70;;;;;;;;;;5011330;28;20030;-72
2021/08/24 02:02:19;;;;;;;3.65;1.92;;;;;;;;;;5015580;28;20076;-72
2021/08/24 02:04:53;;;;;;;4.65;1.50;;;;;;;;;;5015224;28;20446;-72
2021/08/24 02:07:21;;;;;;;4.45;1.38;;;;;;;;;;5014793;28;20046;-72
2021/08/24 02:09:49;;;;;;;4.32;1.50;;;;;;;;;;5015323;28;20033;-72
2021/08/24 02:12:21;;;;;;;5.65;1.95;;;;;;;;;;5014853;28;20072;-72
2021/08/24 02:14:47;;;;;;;2.75;1.20;;;;;;;;;;5015192;28;20489;-72
2021/08/24 02:17:15;;;;;;;4.15;1.70;;;;;;;;;;5015137;28;20030;-72
2021/08/24 02:19:52;;;;;;;4.72;1.40;;;;;;;;;;5015102;28;20042;-72
2021/08/24 02:22:27;;;;;;;3.30;1.27;;;;;;;;;;5015129;28;20034;-73
2021/08/24 02:24:58;;;;;;;3.28;1.40;;;;;;;;;;4996682;28;20033;-72
2021/08/24 02:27:30;;;;;;;2.38;1.30;;;;;;;;;;5015427;28;20079;-72
2021/08/24 02:29:56;;;;;;;2.22;1.17;;;;;;;;;;5015531;28;20029;-72
2021/08/24 02:32:25;;;;;;;3.72;1.25;;;;;;;;;;4997629;28;20529;-72
2021/08/24 02:35:36;;;;;;;3.03;1.55;;;;;;;;;;5011927;28;20037;-72
2021/08/24 02:38:04;;;;;;;3.08;1.23;;;;;;;;;;5009211;28;20029;-73
2021/08/24 02:40:41;;;;;;;4.13;1.42;;;;;;;;;;5015141;28;20060;-72
2021/08/24 02:43:23;;;;;;;2.65;1.27;;;;;;;;;;4997056;28;20474;-72
2021/08/24 02:45:57;;;;;;;5.65;1.40;;;;;;;;;;5014891;28;20025;-73
2021/08/24 02:48:24;;;;;;;3.47;1.25;;;;;;;;;;5014856;28;20018;-72
2021/08/24 02:50:50;;;;;;;2.78;1.30;;;;;;;;;;5015053;28;20409;-72
2021/08/24 02:53:19;;;;;;;4.38;1.40;;;;;;;;;;5014459;28;20021;-72
2021/08/24 02:55:45;;;;;;;4.13;1.40;;;;;;;;;;5014591;28;20386;-72
2021/08/24 02:58:10;;;;;;;2.70;1.27;;;;;;;;;;5014355;28;20038;-72
2021/08/24 03:00:36;;;;;;;5.40;1.45;;;;;;;;;;5014655;28;20026;-72
2021/08/24 03:03:01;;;;;;;2.80;1.58;;;;;;;;;;5014659;28;20045;-72
2021/08/24 03:05:27;;;;;;;4.13;1.27;;;;;;;;;;5014016;28;20026;-72
2021/08/24 03:07:53;;;;;;;3.35;1.23;;;;;;;;;;5014504;28;20053;-72
2021/08/24 03:10:22;;;;;;;2.50;1.10;;;;;;;;;;5014351;28;20076;-72
2021/08/24 03:13:03;;;;;;;2.80;1.25;;;;;;;;;;5005640;28;20037;-72
2021/08/24 03:16:06;;;;;;;3.65;1.20;;;;;;;;;;5014377;28;20421;-72
2021/08/24 03:18:48;;;;;;;2.08;1.13;;;;;;;;;;5013687;28;20018;-72
2021/08/24 03:21:23;;;;;;;2.72;1.27;;;;;;;;;;5013792;28;20510;-72
2021/08/24 03:23:50;;;;;;;3.47;1.33;;;;;;;;;;5014020;28;20037;-72
2021/08/24 03:26:22;;;;;;;3.13;1.20;;;;;;;;;;5013632;28;20375;-72
2021/08/24 03:28:48;;;;;;;2.72;1.30;;;;;;;;;;5013795;28;20033;-72
2021/08/24 03:31:16;;;;;;;3.83;1.20;;;;;;;;;;5014230;28;20032;-72
2021/08/24 03:33:42;;;;;;;2.22;1.25;;;;;;;;;;5012858;28;20037;-72
2021/08/24 03:36:08;;;;;;;5.18;1.83;;;;;;;;;;5014823;28;20037;-72
2021/08/24 03:38:35;;;;;;;3.47;1.30;;;;;;;;;;5013316;28;20033;-72
2021/08/24 03:41:05;;;;;;;4.38;1.17;;;;;;;;;;5012809;28;20108;-72
2021/08/24 03:43:31;;;;;;;3.33;1.38;;;;;;;;;;5007146;28;20040;-72
2021/08/24 03:45:57;;;;;;;3.35;1.40;;;;;;;;;;5012882;28;20025;-72
2021/08/24 03:48:22;;;;;;;2.78;1.30;;;;;;;;;;5012832;28;20033;-72
2021/08/24 03:50:47;;;;;;;6.13;1.60;;;;;;;;;;5012859;28;20030;-72
2021/08/24 03:53:13;;;;;;;2.15;1.13;;;;;;;;;;5013066;28;20030;-72
2021/08/24 03:55:38;;;;;;;5.03;1.38;;;;;;;;;;5013130;28;20353;-72
2021/08/24 03:58:04;;;;;;;3.65;1.42;;;;;;;;;;5012896;28;20026;-72
2021/08/24 04:00:29;;;;;;;2.63;1.02;;;;;;;;;;5013048;28;20036;-72
2021/08/24 04:02:55;;;;;;;2.85;1.20;;;;;;;;;;5012849;28;20477;-72
2021/08/24 04:05:20;;;;;;;5.40;1.50;;;;;;;;;;5012248;28;20029;-71
2021/08/24 04:07:46;;;;;;;3.50;1.20;;;;;;;;;;5013721;28;20034;-72
2021/08/24 04:10:14;;;;;;;2.20;1.08;;;;;;;;;;5013185;28;20026;-73
2021/08/24 04:12:39;;;;;;;2.88;1.10;;;;;;;;;;5008430;28;20025;-72
2021/08/24 04:15:09;;;;;;;4.15;1.63;;;;;;;;;;5013689;28;20355;-72
2021/08/24 04:17:35;;;;;;;2.83;1.20;;;;;;;;;;5013737;28;20417;-73
2021/08/24 04:20:02;;;;;;;3.42;1.30;;;;;;;;;;5013903;28;20030;-73
2021/08/24 04:22:28;;;;;;;3.20;1.35;;;;;;;;;;5013226;28;20033;-73
2021/08/24 04:24:54;;;;;;;2.67;1.15;;;;;;;;;;5013740;28;20022;-73
2021/08/24 04:27:19;;;;;;;3.33;1.13;;;;;;;;;;5013318;28;20029;-73
2021/08/24 04:29:47;;;;;;;3.63;1.35;;;;;;;;;;5013355;28;20021;-73
2021/08/24 04:32:17;;;;;;;3.08;1.30;;;;;;;;;;5013291;28;20080;-73
2021/08/24 04:34:43;;;;;;;4.88;1.45;;;;;;;;;;5013034;28;20109;-73
2021/08/24 04:37:08;;;;;;;3.10;1.35;;;;;;;;;;5013815;28;20524;-73
2021/08/24 04:39:34;;;;;;;3.17;1.23;;;;;;;;;;5013051;28;20080;-73
2021/08/24 04:42:01;;;;;;;3.53;1.50;;;;;;;;;;5012737;28;20064;-72
2021/08/24 04:44:27;;;;;;;2.60;1.40;;;;;;;;;;5013341;28;20037;-72
2021/08/24 04:46:52;;;;;;;3.33;1.10;;;;;;;;;;5012449;28;20025;-72
2021/08/24 04:49:19;;;;;;;4.15;1.27;;;;;;;;;;5012771;28;20381;-73
2021/08/24 04:51:46;;;;;;;3.78;1.20;;;;;;;;;;5013283;28;20093;-73
2021/08/24 04:54:11;;;;;;;3.85;1.33;;;;;;;;;;4993767;28;20076;-72
2021/08/24 04:56:37;;;;;;;3.17;1.20;;;;;;;;;;5011452;28;20438;-73
2021/08/24 04:59:02;;;;;;;5.13;1.02;;;;;;;;;;5011464;28;20351;-73
2021/08/24 05:01:28;;;;;;;5.70;1.10;;;;;;;;;;5011657;28;20041;-72
2021/08/24 05:03:54;;;;;;;3.28;1.30;;;;;;;;;;5009861;28;20037;-73
2021/08/24 05:06:19;;;;;;;3.85;1.50;;;;;;;;;;5011165;28;20049;-73
2021/08/24 05:08:44;;;;;;;2.75;1.45;;;;;;;;;;5011478;28;20030;-73
2021/08/24 05:11:10;;;;;;;3.50;1.30;;;;;;;;;;5011032;28;20026;-72
2021/08/24 05:13:35;;;;;;;4.20;1.40;;;;;;;;;;5011544;28;20386;-72
2021/08/24 05:16:06;;;;;;;3.10;1.20;;;;;;;;;;5011823;28;20041;-72
2021/08/24 05:18:32;;;;;;;4.22;1.10;;;;;;;;;;5010964;28;20474;-72
2021/08/24 05:21:06;;;;;;;2.70;1.30;;;;;;;;;;5026959;28;20083;-72
2021/08/24 05:23:32;;;;;;;2.75;1.10;;;;;;;;;;5031350;28;20473;-72
2021/08/24 05:25:58;;;;;;;5.78;1.35;;;;;;;;;;5032040;28;20068;-72
2021/08/24 05:28:23;;;;;;;2.80;1.13;;;;;;;;;;5031485;28;20405;-72
2021/08/24 05:30:49;;;;;;;3.28;1.30;;;;;;;;;;5031525;28;20079;-72
2021/08/24 05:33:14;;;;;;;4.53;2.15;;;;;;;;;;5014962;28;20044;-73
2021/08/24 05:35:40;;;;;;;2.53;1.13;;;;;;;;;;5021177;28;20029;-73
2021/08/24 05:38:05;;;;;;;3.70;1.20;;;;;;;;;;5016230;28;20030;-73
2021/08/24 05:40:31;;;;;;;2.28;0.93;;;;;;;;;;5015443;28;20030;-73
2021/08/24 05:42:56;;;;;;;5.18;1.27;;;;;;;;;;5015834;28;20022;-73
2021/08/24 05:45:22;;;;;;;2.03;1.08;;;;;;;;;;5015232;28;20029;-73
2021/08/24 05:47:47;;;;;;;3.10;1.00;;;;;;;;;;5015632;28;20056;-74
2021/08/24 05:50:13;;;;;;;3.20;1.30;;;;;;;;;;5015196;28;20045;-73
2021/08/24 05:52:39;;;;;;;3.22;1.25;;;;;;;;;;5015777;28;20161;-74
2021/08/24 05:55:05;;;;;;;2.45;0.93;;;;;;;;;;5015110;28;20049;-73
2021/08/24 05:57:30;;;;;;;2.50;1.23;;;;;;;;;;5015374;28;20037;-73
2021/08/24 05:59:56;;;;;;;3.35;1.50;;;;;;;;;;5014678;28;20028;-74
2021/08/24 06:02:22;;;;;;;2.40;1.13;;;;;;;;;;5014181;28;20028;-74
2021/08/24 06:04:47;;;;;;;2.92;1.17;;;;;;;;;;5014870;28;20026;-74
2021/08/24 06:07:13;;;;;;;2.53;1.00;;;;;;;;;;5002876;28;20394;-74
2021/08/24 06:09:39;;;;;;;3.45;1.15;;;;;;;;;;4998147;28;20382;-73
2021/08/24 06:12:06;;;;;;;4.20;1.38;;;;;;;;;;5014019;28;20034;-74
2021/08/24 06:14:31;;;;;;;4.32;1.33;;;;;;;;;;5013630;28;20038;-71
2021/08/24 06:16:57;;;;;;;2.75;1.10;;;;;;;;;;5014046;28;20076;-71
2021/08/24 06:19:24;;;;;;;1.88;1.00;;;;;;;;;;5013968;28;20044;-73
2021/08/24 06:21:50;;;;;;;2.63;1.10;;;;;;;;;;5014474;28;20049;-71
2021/08/24 06:24:16;;;;;;;2.63;1.20;;;;;;;;;;5014062;28;20458;-73
2021/08/24 06:26:42;;;;;;;3.22;1.20;;;;;;;;;;5013833;28;20037;-72
2021/08/24 06:29:08;;;;;;;2.65;1.20;;;;;;;;;;5011206;28;20029;-71
2021/08/24 06:31:38;;;;;;;2.25;0.93;;;;;;;;;;5011997;28;20096;-71
2021/08/24 06:34:06;;;;;;;2.25;1.05;;;;;;;;;;5013778;28;20032;-71
2021/08/24 06:36:32;;;;;;;2.63;1.20;;;;;;;;;;5013636;28;20072;-73
2021/08/24 06:38:58;;;;;;;5.65;1.60;;;;;;;;;;5013115;28;20490;-74
2021/08/24 06:41:24;;;;;;;2.55;1.00;;;;;;;;;;5014559;28;20049;-74
2021/08/24 06:43:50;;;;;;;2.92;1.00;;;;;;;;;;5014554;28;20060;-75
2021/08/24 06:46:16;;;;;;;2.97;1.13;;;;;;;;;;5013263;28;20025;-74
2021/08/24 06:48:41;;;;;;;3.63;1.20;;;;;;;;;;5014155;28;20036;-74
2021/08/24 06:51:08;;;;;;;2.95;0.90;;;;;;;;;;5014409;28;20026;-74
2021/08/24 06:53:36;;;;;;;3.70;1.30;;;;;;;;;;5014103;28;20045;-74
2021/08/24 06:56:03;;;;;;;2.20;1.10;;;;;;;;;;5013771;28;20056;-76
2021/08/24 06:58:31;;;;;;;3.05;1.20;;;;;;;;;;5013285;28;20370;-73
2021/08/24 07:00:56;;;;;;;2.72;1.20;;;;;;;;;;5013882;28;20438;-73
2021/08/24 07:03:22;;;;;;;2.35;1.02;;;;;;;;;;5012450;28;20057;-74
2021/08/24 07:05:51;;;;;;;3.38;1.10;;;;;;;;;;5010244;28;20037;-74
2021/08/24 07:08:18;;;;;;;2.40;1.00;;;;;;;;;;5013706;28;20083;-72
2021/08/24 07:10:45;;;;;;;2.50;1.20;;;;;;;;;;5013372;28;20034;-72
2021/08/24 07:13:11;;;;;;;2.45;1.00;;;;;;;;;;5013497;28;20026;-72
2021/08/24 07:15:37;;;;;;;5.25;1.13;;;;;;;;;;5013097;28;20029;-74
2021/08/24 07:18:04;;;;;;;2.20;1.05;;;;;;;;;;5013174;28;20034;-73
2021/08/24 07:20:29;;;;;;;2.30;1.08;;;;;;;;;;5013675;28;20030;-73
2021/08/24 07:23:00;;;;;;;2.95;1.17;;;;;;;;;;5008986;28;20029;-73
2021/08/24 07:25:27;;;;;;;4.13;1.27;;;;;;;;;;5014623;28;20470;-73
2021/08/24 07:27:55;;;;;;;3.13;1.08;;;;;;;;;;5012350;28;20050;-74
2021/08/24 07:30:23;;;;;;;3.20;1.20;;;;;;;;;;5015061;28;20014;-73
2021/08/24 07:32:49;;;;;;;2.72;1.30;;;;;;;;;;5014252;28;20068;-73
2021/08/24 07:35:15;;;;;;;2.53;1.20;;;;;;;;;;4996199;28;20057;-71
2021/08/24 07:37:40;;;;;;;3.65;1.52;;;;;;;;;;5013450;28;20125;-74
2021/08/24 07:40:09;;;;;;;3.30;1.30;;;;;;;;;;5012891;28;20022;-71
2021/08/24 07:42:37;;;;;;;2.63;1.15;;;;;;;;;;5012432;28;20021;-72
2021/08/24 07:45:03;;;;;;;3.30;1.40;;;;;;;;;;5012335;28;20030;-73
2021/08/24 07:47:29;;;;;;;2.83;1.17;;;;;;;;;;5012517;28;20045;-71
2021/08/24 07:49:54;;;;;;;2.80;1.30;;;;;;;;;;5013104;28;20052;-73
2021/08/24 07:52:20;;;;;;;5.07;1.40;;;;;;;;;;5012362;28;20022;-73
2021/08/24 07:54:45;;;;;;;2.42;1.38;;;;;;;;;;5013290;28;20025;-72
2021/08/24 07:57:11;;;;;;;3.58;1.40;;;;;;;;;;5013138;28;20036;-74
2021/08/24 07:59:36;;;;;;;4.30;1.52;;;;;;;;;;5010642;28;20034;-74
2021/08/24 08:02:02;;;;;;;2.60;1.20;;;;;;;;;;5025763;28;20057;-73
2021/08/24 08:04:28;;;;;;;3.28;1.30;;;;;;;;;;5032707;28;20032;-76
2021/08/24 08:06:54;;;;;;;2.85;1.17;;;;;;;;;;5014385;28;20133;-73
2021/08/24 08:09:20;;;;;;;3.22;1.67;;;;;;;;;;5008993;28;20022;-75
2021/08/24 08:11:48;;;;;;;2.75;1.13;;;;;;;;;;5013009;28;20524;-73
2021/08/24 08:14:17;;;;;;;2.95;1.27;;;;;;;;;;5012649;28;20080;-70
2021/08/24 08:16:44;;;;;;;2.92;1.30;;;;;;;;;;4993819;28;20547;-70
2021/08/24 08:19:10;;;;;;;2.92;1.35;;;;;;;;;;5021167;28;20034;-68
2021/08/24 08:21:38;;;;;;;2.50;1.05;;;;;;;;;;5012456;28;20041;-66
2021/08/24 08:24:04;;;;;;;3.10;1.38;;;;;;;;;;5012084;28;20038;-71
2021/08/24 08:26:31;;;;;;;2.28;1.05;;;;;;;;;;5012496;28;20029;-70
2021/08/24 08:28:57;;;;;;;3.75;1.40;;;;;;;;;;5011812;28;20029;-70
2021/08/24 08:31:24;;;;;;;3.20;1.20;;;;;;;;;;5031202;28;20025;-69
2021/08/24 08:33:51;;;;;;;4.50;1.60;;;;;;;;;;5013204;28;20029;-69
2021/08/24 08:36:17;;;;;;;2.63;1.10;;;;;;;;;;5012744;28;20026;-71
2021/08/24 08:38:42;;;;;;;2.80;1.38;;;;;;;;;;5011780;28;20044;-72
2021/08/24 08:41:32;;;;;;;2.95;1.40;;;;;;;;;;5012158;28;20034;-69
2021/08/24 08:44:02;;;;;;;3.25;1.45;;;;;;;;;;4975336;28;20033;-71
2021/08/24 08:47:09;;;;;;;3.45;1.40;;;;;;;;;;5005892;28;20036;-71
2021/08/24 08:50:00;;;;;;;3.70;1.42;;;;;;;;;;5015193;28;20037;-70
2021/08/24 08:52:39;;;;;;;2.50;1.33;;;;;;;;;;5000535;28;20057;-72
2021/08/24 08:55:22;;;;;;;3.28;1.25;;;;;;;;;;5017567;28;20625;-71
2021/08/24 08:58:06;;;;;;;3.45;1.17;;;;;;;;;;5012259;28;20151;-72
2021/08/24 09:00:55;;;;;;;2.65;1.48;;;;;;;;;;5004304;28;20455;-75
2021/08/24 09:03:50;;;;;;;2.63;1.35;;;;;;;;;;5003499;28;20037;-73
2021/08/24 09:06:17;;;;;;;2.47;1.20;;;;;;;;;;5005158;28;20689;-70
2021/08/24 09:08:44;;;;;;;4.20;1.65;;;;;;;;;;4992305;28;20058;-72
2021/08/24 09:11:12;;;;;;;3.40;1.55;;;;;;;;;;4991275;28;20022;-71
2021/08/24 09:13:50;;;;;;;2.58;1.15;;;;;;;;;;4992086;28;20045;-68
2021/08/24 09:16:31;;;;;;;3.75;1.70;;;;;;;;;;4991756;28;20096;-68
2021/08/24 09:19:01;;;;;;;3.75;1.50;;;;;;;;;;4992049;28;20401;-68
2021/08/24 09:21:29;;;;;;;4.90;1.48;;;;;;;;;;4992257;28;20023;-68
2021/08/24 09:23:56;;;;;;;2.97;1.30;;;;;;;;;;4992154;28;20058;-70
2021/08/24 09:26:49;;;;;;;2.95;1.30;;;;;;;;;;4992070;28;20029;-73
2021/08/24 09:29:19;;;;;;;3.85;1.48;;;;;;;;;;4991562;28;20104;-70
2021/08/24 09:31:47;;;;;;;2.72;1.40;;;;;;;;;;4991860;28;20041;-69
2021/08/24 09:34:20;;;;;;;3.00;1.33;;;;;;;;;;4991699;28;20101;-70
2021/08/24 09:36:45;;;;;;;3.17;1.45;;;;;;;;;;5006879;28;20029;-70
2021/08/24 09:39:11;;;;;;;2.92;1.40;;;;;;;;;;4992083;28;20034;-70
2021/08/24 09:41:39;;;;;;;2.70;1.30;;;;;;;;;;4991153;28;20105;-70
2021/08/24 09:44:34;;;;;;;3.35;1.42;;;;;;;;;;4988621;28;20153;-67
2021/08/24 09:47:06;;;;;;;3.50;1.33;;;;;;;;;;4990889;28;20104;-69
2021/08/24 09:49:38;;;;;;;2.97;1.50;;;;;;;;;;4991916;28;20034;-71
2021/08/24 09:52:22;;;;;;;3.63;1.67;;;;;;;;;;4991353;28;20391;-67
2021/08/24 09:54:47;;;;;;;2.78;1.40;;;;;;;;;;4993115;28;20034;-72
2021/08/24 09:57:39;;;;;;;4.85;1.50;;;;;;;;;;4992211;28;20049;-73
2021/08/24 10:00:36;;;;;;;3.60;1.63;;;;;;;;;;4995511;28;20061;-68
2021/08/24 10:03:17;;;;;;;3.33;1.27;;;;;;;;;;4990902;28;20030;-68
2021/08/24 10:05:43;;;;;;;3.83;1.80;;;;;;;;;;4991557;28;20467;-69
2021/08/24 10:08:31;;;;;;;1.92;1.15;;;;;;;;;;5010402;28;20073;-69
2021/08/24 10:11:24;;;;;;;3.55;1.25;;;;;;;;;;5010646;28;20030;-71
2021/08/24 10:13:51;;;;;;;2.88;1.38;;;;;;;;;;5009778;28;20386;-70
2021/08/24 10:16:29;;;;;;;2.90;1.30;;;;;;;;;;5010082;28;20129;-71
2021/08/24 10:19:18;;;;;;;3.78;1.63;;;;;;;;;;5010292;28;20371;-69
2021/08/24 10:22:11;;;;;;;2.65;1.42;;;;;;;;;;5011909;28;20112;-71
2021/08/24 10:24:51;;;;;;;2.67;1.33;;;;;;;;;;5009840;28;20484;-70
2021/08/24 10:27:31;;;;;;;4.72;1.63;;;;;;;;;;5012750;28;20053;-70
2021/08/24 10:30:00;;;;;;;2.83;1.50;;;;;;;;;;5013551;28;20104;-70
2021/08/24 10:32:56;;;;;;;3.42;1.58;;;;;;;;;;5013927;28;20030;-68
2021/08/24 10:35:27;;;;;;;3.70;1.70;;;;;;;;;;5004830;28;20427;-69
2021/08/24 10:37:54;;;;;;;3.97;1.33;;;;;;;;;;5013960;28;20402;-71
2021/08/24 10:40:23;;;;;;;3.47;1.55;;;;;;;;;;5014938;28;20018;-67
2021/08/24 10:43:19;;;;;;;4.57;1.70;;;;;;;;;;5021902;28;20466;-71
2021/08/24 10:46:02;;;;;;;3.60;1.50;;;;;;;;;;5005306;28;20124;-70
2021/08/24 10:48:33;;;;;;;3.53;1.67;;;;;;;;;;5014060;28;20026;-72
2021/08/24 10:51:33;;;;;;;2.53;1.40;;;;;;;;;;5013901;28;20748;-69
2021/08/24 10:54:13;;;;;;;2.78;1.45;;;;;;;;;;5009287;28;20032;-73
2021/08/24 10:56:46;;;;;;;3.08;1.50;;;;;;;;;;5008790;28;20037;-72
2021/08/24 10:59:48;;;;;;;3.65;1.50;;;;;;;;;;5013150;28;20509;-72
2021/08/24 11:02:25;;;;;;;3.10;1.50;;;;;;;;;;5013165;28;20034;-71
2021/08/24 11:05:17;;;;;;;3.97;1.67;;;;;;;;;;5008331;28;20072;-72
2021/08/24 11:07:58;;;;;;;4.13;1.60;;;;;;;;;;5013623;28;20579;-72
2021/08/24 11:10:42;;;;;;;3.30;1.60;;;;;;;;;;5013905;28;20081;-72
2021/08/24 11:13:12;;;;;;;3.63;2.00;;;;;;;;;;5013173;28;20018;-72
2021/08/24 11:15:47;;;;;;;4.55;1.52;;;;;;;;;;5012466;28;20056;-72
2021/08/24 11:18:44;;;;;;;3.20;1.70;;;;;;;;;;5012673;28;20033;-73
2021/08/24 11:21:10;;;;;;;2.80;1.60;;;;;;;;;;4999713;28;20529;-72
2021/08/24 11:24:02;;;;;;;3.88;1.80;;;;;;;;;;5012321;28;20283;-73
2021/08/24 11:26:39;;;;;;;3.10;1.52;;;;;;;;;;5012388;28;20030;-69
2021/08/24 11:29:10;;;;;;;3.42;1.73;;;;;;;;;;5004057;28;20029;-72
2021/08/24 11:31:49;;;;;;;3.97;1.65;;;;;;;;;;4995141;28;20140;-70
2021/08/24 11:34:19;;;;;;;3.40;1.75;;;;;;;;;;5011774;28;20033;-71
2021/08/24 11:36:53;;;;;;;4.40;1.75;;;;;;;;;;5012612;28;20034;-70
2021/08/24 11:39:26;;;;;;;3.17;1.52;;;;;;;;;;5009714;28;20033;-69
2021/08/24 11:41:58;;;;;;;2.47;1.38;;;;;;;;;;5013162;28;20029;-70
2021/08/24 11:44:31;;;;;;;4.20;1.83;;;;;;;;;;5012990;28;20521;-70
2021/08/24 11:47:12;;;;;;;2.55;1.35;;;;;;;;;;4993399;28;20038;-69
2021/08/24 11:50:08;;;;;;;4.13;1.75;;;;;;;;;;5012587;28;20026;-69
2021/08/24 11:52:57;;;;;;;2.17;1.30;;;;;;;;;;5010411;28;20041;-70
2021/08/24 11:55:37;;;;;;;3.63;1.77;;;;;;;;;;5011828;28;20036;-70
2021/08/24 11:58:06;;;;;;;3.00;1.70;;;;;;;;;;5011798;28;20060;-70
2021/08/24 12:00:33;;;;;;;3.40;1.60;;;;;;;;;;5011826;28;20041;-69
2021/08/24 12:03:02;;;;;;;3.08;1.65;;;;;;;;;;5011254;28;20040;-69
2021/08/24 12:05:34;;;;;;;3.08;1.65;;;;;;;;;;5012298;28;20029;-70
2021/08/24 12:08:13;;;;;;;5.15;1.83;;;;;;;;;;5012664;28;20050;-70
2021/08/24 12:11:01;;;;;;;3.60;1.70;;;;;;;;;;5011558;28;20026;-69
2021/08/24 12:13:31;;;;;;;4.35;1.70;;;;;;;;;;5010049;28;20030;-70
2021/08/24 12:16:11;;;;;;;3.83;1.90;;;;;;;;;;5011948;28;20037;-70
2021/08/24 12:18:37;;;;;;;3.13;1.60;;;;;;;;;;5012574;28;20032;-71
2021/08/24 12:21:34;;;;;;;3.33;1.50;;;;;;;;;;5012729;28;20029;-70
2021/08/24 12:24:24;;;;;;;2.80;1.70;;;;;;;;;;4994126;28;20036;-68
2021/08/24 12:26:52;;;;;;;2.92;1.48;;;;;;;;;;5007601;28;20454;-70
2021/08/24 12:29:34;;;;;;;3.67;1.50;;;;;;;;;;5011767;28;20104;-72
2021/08/24 12:32:08;;;;;;;4.15;1.55;;;;;;;;;;5007245;28;20482;-72
2021/08/24 12:34:34;;;;;;;2.78;1.23;;;;;;;;;;5010900;28;20032;-68
2021/08/24 12:37:20;;;;;;;2.88;1.70;;;;;;;;;;5011376;28;20034;-70
2021/08/24 12:39:51;;;;;;;3.60;1.58;;;;;;;;;;4980260;28;20041;-71
2021/08/24 12:42:28;;;;;;;3.05;1.40;;;;;;;;;;5010195;28;20116;-71
2021/08/24 12:45:02;;;;;;;3.28;1.30;;;;;;;;;;5008963;28;20040;-69
2021/08/24 12:47:39;;;;;;;3.35;1.67;;;;;;;;;;5010750;28;20394;-70
2021/08/24 12:50:07;;;;;;;3.33;1.73;;;;;;;;;;5011106;28;20504;-70
2021/08/24 12:52:48;;;;;;;3.50;1.60;;;;;;;;;;5011087;28;20112;-70
2021/08/24 12:55:32;;;;;;;3.60;1.60;;;;;;;;;;5011078;28;20036;-70
2021/08/24 12:58:07;;;;;;;3.03;1.55;;;;;;;;;;5011012;28;20037;-70
2021/08/24 13:00:37;;;;;;;3.08;1.52;;;;;;;;;;5010905;28;20391;-70
2021/08/24 13:03:16;;;;;;;3.03;1.70;;;;;;;;;;5010955;28;20029;-71
2021/08/24 13:05:42;;;;;;;3.65;1.75;;;;;;;;;;5010712;28;20037;-69
2021/08/24 13:08:27;;;;;;;3.83;1.70;;;;;;;;;;5010345;28;20084;-70
2021/08/24 13:10:55;;;;;;;4.88;1.67;;;;;;;;;;5015516;28;20028;-71
2021/08/24 13:13:27;;;;;;;3.85;1.90;;;;;;;;;;4993421;28;20053;-70
2021/08/24 13:16:07;;;;;;;3.33;1.70;;;;;;;;;;5010606;28;20041;-70
2021/08/24 13:18:35;;;;;;;2.88;1.50;;;;;;;;;;5010081;28;20064;-69
2021/08/24 13:21:23;;;;;;;3.88;1.70;;;;;;;;;;5010384;28;20033;-69
2021/08/24 13:23:53;;;;;;;3.17;1.60;;;;;;;;;;5011116;28;20032;-71
2021/08/24 13:26:22;;;;;;;3.28;1.75;;;;;;;;;;4993058;28;20133;-69
2021/08/24 13:28:51;;;;;;;5.80;1.60;;;;;;;;;;5010877;28;20336;-68
2021/08/24 13:31:35;;;;;;;4.35;1.67;;;;;;;;;;5010909;28;20056;-69
2021/08/24 13:34:11;;;;;;;3.25;1.60;;;;;;;;;;5010944;28;20116;-70
2021/08/24 13:36:45;;;;;;;4.95;1.90;;;;;;;;;;5010035;28;20025;-69
2021/08/24 13:39:12;;;;;;;3.15;1.75;;;;;;;;;;5016001;28;20466;-71
2021/08/24 13:41:43;;;;;;;5.80;1.77;;;;;;;;;;5010601;28;20488;-70
2021/08/24 13:44:18;;;;;;;3.55;1.95;;;;;;;;;;5011457;28;20037;-70
2021/08/24 13:46:52;;;;;;;3.58;2.00;;;;;;;;;;5010684;28;20659;-69
2021/08/24 13:49:18;;;;;;;;;;;;;;;;;;5010383;28;20038;-68
2021/08/24 13:52:00;;;;;;;4.95;1.65;;;;;;;;;;5015829;28;19919;-69
2021/08/24 13:54:38;;;;;;;3.72;1.60;;;;;;;;;;5010131;28;20018;-71
2021/08/24 13:57:08;;;;;;;3.00;1.50;;;;;;;;;;5013517;28;20030;-72
2021/08/24 13:59:36;;;;;;;3.83;1.77;;;;;;;;;;5013914;28;20029;-72
2021/08/24 14:02:06;;;;;;;3.22;1.35;;;;;;;;;;5013190;28;20050;-69
2021/08/24 14:04:44;;;;;;;2.35;1.30;;;;;;;;;;5015209;28;20064;-68
2021/08/24 14:07:22;;;;;;;3.97;1.60;;;;;;;;;;5014229;28;20556;-69
2021/08/24 14:09:52;;;;;;;3.60;1.40;;;;;;;;;;5014549;28;20101;-70
2021/08/24 14:12:23;;;;;;;2.65;1.30;;;;;;;;;;4996563;28;20121;-70
2021/08/24 14:15:02;;;;;;;4.05;1.73;;;;;;;;;;5014269;28;20026;-73
2021/08/24 14:17:41;;;;;;;2.90;1.70;;;;;;;;;;5014358;28;20029;-68
2021/08/24 14:20:30;;;;;;;3.53;1.70;;;;;;;;;;5013845;28;20026;-69
2021/08/24 14:23:01;;;;;;;3.22;1.48;;;;;;;;;;5014294;28;20037;-70
2021/08/24 14:25:35;;;;;;;2.97;1.67;;;;;;;;;;5014334;28;20046;-71
2021/08/24 14:28:14;;;;;;;6.28;1.70;;;;;;;;;;5013154;28;20068;-70
2021/08/24 14:30:42;;;;;;;3.17;1.77;;;;;;;;;;4996357;28;20080;-72
2021/08/24 14:33:23;;;;;;;2.70;1.60;;;;;;;;;;5010600;28;20065;-71
2021/08/24 14:35:55;;;;;;;3.08;1.63;;;;;;;;;;5013793;28;20414;-71
2021/08/24 14:38:29;;;;;;;3.08;1.50;;;;;;;;;;5015513;28;20033;-71
2021/08/24 14:41:09;;;;;;;2.75;1.42;;;;;;;;;;5013388;28;20038;-70
2021/08/24 14:43:39;;;;;;;6.78;1.80;;;;;;;;;;5006987;28;20025;-70
2021/08/24 14:46:05;;;;;;;2.35;1.27;;;;;;;;;;5016739;28;20033;-70
2021/08/24 14:48:31;;;;;;;3.13;1.63;;;;;;;;;;5014339;28;20032;-71
2021/08/24 14:50:58;;;;;;;2.72;1.40;;;;;;;;;;5016270;28;20022;-71
2021/08/24 14:53:48;;;;;;;3.00;1.60;;;;;;;;;;5012632;28;20109;-71
2021/08/24 14:56:25;;;;;;;2.72;1.52;;;;;;;;;;5012136;28;20021;-70
2021/08/24 14:59:10;;;;;;;2.90;1.30;;;;;;;;;;5009494;28;20029;-71
2021/08/24 15:01:36;;;;;;;2.85;1.60;;;;;;;;;;5013212;28;20036;-71
2021/08/24 15:04:20;;;;;;;3.50;1.60;;;;;;;;;;5013320;28;20033;-72
2021/08/24 15:06:50;;;;;;;4.47;1.25;;;;;;;;;;5009943;28;20046;-72
2021/08/24 15:09:45;;;;;;;5.15;1.88;;;;;;;;;;5013010;28;20034;-72
2021/08/24 15:12:23;;;;;;;5.82;1.65;;;;;;;;;;5014226;28;20053;-71
2021/08/24 15:14:52;;;;;;;5.88;1.30;;;;;;;;;;5013682;28;20026;-71